createdAt,value
2023-04-06T00:00:35.515Z,47.67
2023-04-06T00:03:02.366Z,47.41
2023-04-06T00:05:31.366Z,47.45
2023-04-06T00:08:01.308Z,48.66
2023-04-06T00:10:27.918Z,47.99
2023-04-06T00:12:54.792Z,48.11
2023-04-06T00:15:21.946Z,49.95
2023-04-06T00:17:48.618Z,48.76
2023-04-06T00:20:16.210Z,48.84
2023-04-06T00:22:43.221Z,48.60
2023-04-06T00:25:10.995Z,48.89
2023-04-06T00:27:38.351Z,49.97
2023-04-06T00:30:06.119Z,50.43
2023-04-06T00:32:32.757Z,49.47
2023-04-06T00:34:59.702Z,49.82
2023-04-06T00:37:26.297Z,50.34
2023-04-06T00:39:53.056Z,51.34
2023-04-06T00:42:26.155Z,50.86
2023-04-06T00:44:58.513Z,50.54
2023-04-06T00:47:29.118Z,49.83
2023-04-06T00:49:56.223Z,50.32
2023-04-06T00:52:23.236Z,50.56
2023-04-06T00:54:51.501Z,50.75
2023-04-06T00:57:20.374Z,50.54
2023-04-06T00:59:53.069Z,50.75
2023-04-06T01:02:20.259Z,49.66
2023-04-06T01:04:49.756Z,48.77
2023-04-06T01:07:25.496Z,47.70
2023-04-06T01:10:23.064Z,48.81
2023-04-06T01:12:49.827Z,48.87
2023-04-06T01:15:25.214Z,50.26
2023-04-06T01:17:52.253Z,49.05
2023-04-06T01:20:19.268Z,49.65
2023-04-06T01:22:46.388Z,48.72
2023-04-06T01:25:13.550Z,49.72
2023-04-06T01:28:15.691Z,49.84
2023-04-06T01:31:06.792Z,50.39
2023-04-06T01:33:52.765Z,49.84
2023-04-06T01:36:22.805Z,47.94
2023-04-06T01:38:57.590Z,49.42
2023-04-06T01:41:31.270Z,49.58
2023-04-06T01:43:57.860Z,49.17
2023-04-06T01:46:28.112Z,48.78
2023-04-06T01:48:55.046Z,48.14
2023-04-06T01:51:33.062Z,50.12
2023-04-06T01:54:01.990Z,49.40
2023-04-06T01:56:53.531Z,49.06
2023-04-06T01:59:28.155Z,49.44
2023-04-06T02:01:55.968Z,49.58
2023-04-06T02:04:24.593Z,48.60
2023-04-06T02:06:56.715Z,48.16
2023-04-06T02:09:25.911Z,48.43
2023-04-06T02:11:52.739Z,48.89
2023-04-06T02:14:19.302Z,48.73
2023-04-06T02:16:51.299Z,48.77
2023-04-06T02:19:18.033Z,48.65
2023-04-06T02:21:44.664Z,48.59
2023-04-06T02:24:11.522Z,48.37
2023-04-06T02:26:38.229Z,49.23
2023-04-06T02:29:05.141Z,49.22
2023-04-06T02:31:33.502Z,48.16
2023-04-06T02:34:01.378Z,49.65
2023-04-06T02:36:30.226Z,49.64
2023-04-06T02:38:56.820Z,49.48
2023-04-06T02:41:23.539Z,50.11
2023-04-06T02:43:50.362Z,49.98
2023-04-06T02:46:26.623Z,50.20
2023-04-06T02:48:53.268Z,49.46
2023-04-06T02:51:19.967Z,49.92
2023-04-06T02:53:51.729Z,49.47
2023-04-06T02:56:18.326Z,50.05
2023-04-06T02:58:49.249Z,49.29
2023-04-06T03:01:16.392Z,49.58
2023-04-06T03:03:43.509Z,49.65
2023-04-06T03:06:17.019Z,50.54
2023-04-06T03:08:44.373Z,49.77
2023-04-06T03:11:11.639Z,50.51
2023-04-06T03:13:41.462Z,50.79
2023-04-06T03:16:08.223Z,50.94
2023-04-06T03:18:35.647Z,51.03
2023-04-06T03:21:02.316Z,51.34
2023-04-06T03:23:39.594Z,50.75
2023-04-06T03:26:06.767Z,51.71
2023-04-06T03:28:33.657Z,51.83
2023-04-06T03:31:03.718Z,51.39
2023-04-06T03:34:00.231Z,52.10
2023-04-06T03:36:31.760Z,52.38
2023-04-06T03:38:58.963Z,52.52
2023-04-06T03:41:25.914Z,51.71
2023-04-06T03:44:01.567Z,50.53
2023-04-06T03:46:28.147Z,50.44
2023-04-06T03:48:57.583Z,50.51
2023-04-06T03:51:24.569Z,50.57
2023-04-06T03:53:51.243Z,51.92
2023-04-06T03:56:17.762Z,51.87
2023-04-06T03:58:46.032Z,51.99
2023-04-06T04:01:13.186Z,51.49
2023-04-06T04:03:39.923Z,50.60
2023-04-06T04:06:06.773Z,50.92
2023-04-06T04:08:33.811Z,49.92
2023-04-06T04:11:01.995Z,50.82
2023-04-06T04:13:29.068Z,52.29
2023-04-06T04:15:55.870Z,52.45
2023-04-06T04:18:22.596Z,52.10
2023-04-06T04:20:49.135Z,51.62
2023-04-06T04:23:16.731Z,51.58
2023-04-06T04:25:44.585Z,51.41
2023-04-06T04:28:11.143Z,51.89
2023-04-06T04:30:39.010Z,51.13
2023-04-06T04:33:09.560Z,52.55
2023-04-06T04:35:36.159Z,52.16
2023-04-06T04:38:03.091Z,52.31
2023-04-06T04:40:30.465Z,52.70
2023-04-06T04:43:06.240Z,52.05
2023-04-06T04:45:34.628Z,51.16
2023-04-06T04:48:11.823Z,51.67
2023-04-06T04:50:50.714Z,52.22
2023-04-06T04:53:18.858Z,52.14
2023-04-06T04:55:46.131Z,53.05
2023-04-06T04:58:17.631Z,51.40
2023-04-06T05:00:51.595Z,52.39
2023-04-06T05:03:23.215Z,53.13
2023-04-06T05:05:56.951Z,52.97
2023-04-06T05:08:26.639Z,52.92
2023-04-06T05:10:53.365Z,52.44
2023-04-06T05:13:21.041Z,52.39
2023-04-06T05:15:49.123Z,52.52
2023-04-06T05:18:26.741Z,51.27
2023-04-06T05:20:54.215Z,52.37
2023-04-06T05:23:27.817Z,52.38
2023-04-06T05:25:55.032Z,53.39
2023-04-06T05:28:23.348Z,52.80
2023-04-06T05:30:50.167Z,53.37
2023-04-06T05:33:17.320Z,53.90
2023-04-06T05:36:06.287Z,53.99
2023-04-06T05:38:34.282Z,54.13
2023-04-06T05:41:08.344Z,54.44
2023-04-06T05:43:35.784Z,53.81
2023-04-06T05:46:02.989Z,53.97
2023-04-06T05:48:29.685Z,54.27
2023-04-06T05:50:56.510Z,54.17
2023-04-06T05:53:30.094Z,54.44
2023-04-06T05:56:03.250Z,54.36
2023-04-06T05:58:30.366Z,54.49
2023-04-06T06:00:59.001Z,54.16
2023-04-06T06:03:27.431Z,54.13
2023-04-06T06:06:06.063Z,54.04
2023-04-06T06:09:06.082Z,54.33
2023-04-06T06:11:38.204Z,53.88
2023-04-06T06:14:05.209Z,54.25
2023-04-06T06:16:36.269Z,54.11
2023-04-06T06:19:03.255Z,52.71
2023-04-06T06:21:31.649Z,52.26
2023-04-06T06:23:58.280Z,52.34
2023-04-06T06:26:24.966Z,51.42
2023-04-06T06:28:51.522Z,50.62
2023-04-06T06:31:21.339Z,49.13
2023-04-06T06:33:51.167Z,48.21
2023-04-06T06:36:18.756Z,47.75
2023-04-06T06:38:46.079Z,47.26
2023-04-06T06:41:14.761Z,47.03
2023-04-06T06:43:41.427Z,45.35
2023-04-06T06:46:09.582Z,44.07
2023-04-06T06:48:36.285Z,44.11
2023-04-06T06:51:03.154Z,44.96
2023-04-06T06:53:29.806Z,44.57
2023-04-06T06:55:56.975Z,44.01
2023-04-06T06:58:24.063Z,43.70
2023-04-06T07:00:50.741Z,42.68
2023-04-06T07:03:17.345Z,42.32
2023-04-06T07:05:54.206Z,43.04
2023-04-06T07:08:23.442Z,43.65
2023-04-06T07:10:53.434Z,42.57
2023-04-06T07:13:24.746Z,41.27
2023-04-06T07:15:54.211Z,39.41
2023-04-06T07:18:21.493Z,39.84
2023-04-06T07:20:48.349Z,39.35
2023-04-06T07:23:16.328Z,38.25
2023-04-06T07:25:43.117Z,38.19
2023-04-06T07:28:10.407Z,38.44
2023-04-06T07:30:38.500Z,39.02
2023-04-06T07:33:06.560Z,36.73
2023-04-06T07:35:35.940Z,37.26
2023-04-06T07:38:03.444Z,37.34
2023-04-06T07:40:32.755Z,38.16
2023-04-06T07:42:59.701Z,37.89
2023-04-06T07:45:26.441Z,37.79
2023-04-06T07:47:53.743Z,38.48
2023-04-06T07:50:20.851Z,37.06
2023-04-06T07:52:47.864Z,37.00
2023-04-06T07:55:15.749Z,37.50
2023-04-06T07:57:42.345Z,37.32
2023-04-06T08:00:10.684Z,36.72
2023-04-06T08:02:40.054Z,36.89
2023-04-06T08:05:07.001Z,37.13
2023-04-06T08:07:33.691Z,37.02
2023-04-06T08:10:00.703Z,37.41
2023-04-06T08:12:27.502Z,37.53
2023-04-06T08:14:54.129Z,36.34
2023-04-06T08:17:21.062Z,36.78
2023-04-06T08:19:47.707Z,36.30
2023-04-06T08:22:14.305Z,36.65
2023-04-06T08:24:41.077Z,36.55
2023-04-06T08:27:08.578Z,36.49
2023-04-06T08:29:35.168Z,36.08
2023-04-06T08:32:05.904Z,36.16
2023-04-06T08:34:34.064Z,36.00
2023-04-06T08:37:01.066Z,36.16
2023-04-06T08:39:28.680Z,35.15
2023-04-06T08:42:00.498Z,35.25
2023-04-06T08:44:27.990Z,34.92
2023-04-06T08:46:55.654Z,34.30
2023-04-06T08:49:23.136Z,34.90
2023-04-06T08:51:50.317Z,34.74
2023-04-06T08:54:17.053Z,33.90
2023-04-06T08:56:44.036Z,33.47
2023-04-06T08:59:11.771Z,33.32
2023-04-06T09:01:42.383Z,34.32
2023-04-06T09:04:13.940Z,33.65
2023-04-06T09:06:41.692Z,33.48
2023-04-06T09:09:08.796Z,33.58
2023-04-06T09:11:49.971Z,33.32
2023-04-06T09:14:17.889Z,32.52
2023-04-06T09:16:46.503Z,33.07
2023-04-06T09:19:13.718Z,32.83
2023-04-06T09:21:43.193Z,33.28
2023-04-06T09:24:10.381Z,32.97
2023-04-06T09:26:48.576Z,33.04
2023-04-06T09:29:27.880Z,33.36
2023-04-06T09:32:11.328Z,33.41
2023-04-06T09:34:39.536Z,33.16
2023-04-06T09:37:20.081Z,33.49
2023-04-06T09:39:47.287Z,32.16
2023-04-06T09:42:26.600Z,32.04
2023-04-06T09:44:53.318Z,32.23
2023-04-06T09:47:20.945Z,32.05
2023-04-06T09:49:50.959Z,31.51
2023-04-06T09:52:20.486Z,31.82
2023-04-06T09:54:50.902Z,31.33
2023-04-06T09:57:33.029Z,31.66
2023-04-06T10:00:04.568Z,31.74
2023-04-06T10:02:51.377Z,31.36
2023-04-06T10:05:28.079Z,30.98
2023-04-06T10:08:00.821Z,30.28
2023-04-06T10:10:29.584Z,31.18
2023-04-06T10:12:56.990Z,30.13
2023-04-06T10:15:24.002Z,30.18
2023-04-06T10:17:50.806Z,30.33
2023-04-06T10:20:24.511Z,31.16
2023-04-06T10:23:05.563Z,30.52
2023-04-06T10:25:33.916Z,30.82
2023-04-06T10:28:08.074Z,30.98
2023-04-06T10:30:36.042Z,29.87
2023-04-06T10:33:14.629Z,31.87
2023-04-06T10:35:41.799Z,31.55
2023-04-06T10:38:09.325Z,30.74
2023-04-06T10:40:41.032Z,31.17
2023-04-06T10:43:10.133Z,30.02
2023-04-06T10:45:36.950Z,30.68
2023-04-06T10:48:17.797Z,31.80
2023-04-06T10:50:47.221Z,31.04
2023-04-06T10:53:28.220Z,30.09
2023-04-06T10:55:58.018Z,30.24
2023-04-06T10:58:28.651Z,29.61
2023-04-06T11:01:00.725Z,29.19
2023-04-06T11:03:28.219Z,28.97
2023-04-06T11:05:54.817Z,29.25
2023-04-06T11:08:31.847Z,29.98
2023-04-06T11:11:09.434Z,30.34
2023-04-06T11:13:45.511Z,29.84
2023-04-06T11:16:19.665Z,29.85
2023-04-06T11:18:59.247Z,29.62
2023-04-06T11:21:40.045Z,30.30
2023-04-06T11:24:13.828Z,30.45
2023-04-06T11:26:49.661Z,29.89
2023-04-06T11:29:18.304Z,29.56
2023-04-06T11:31:49.834Z,30.09
2023-04-06T11:34:24.458Z,31.52
2023-04-06T11:36:58.836Z,31.20
2023-04-06T11:39:27.630Z,32.89
2023-04-06T11:41:58.164Z,31.48
2023-04-06T11:44:41.497Z,31.34
2023-04-06T11:47:09.535Z,31.50
2023-04-06T11:49:54.673Z,31.28
2023-04-06T11:52:25.612Z,31.14
2023-04-06T11:54:57.771Z,32.01
2023-04-06T11:57:27.398Z,33.04
2023-04-06T11:59:54.179Z,32.78
2023-04-06T12:02:21.022Z,32.22
2023-04-06T12:04:47.843Z,33.25
2023-04-06T12:07:14.586Z,33.29
2023-04-06T12:09:41.254Z,32.61
2023-04-06T12:12:07.995Z,31.87
2023-04-06T12:14:34.716Z,31.35
2023-04-06T12:17:01.334Z,32.23
2023-04-06T12:19:30.999Z,33.04
2023-04-06T12:21:58.487Z,33.38
2023-04-06T12:24:25.400Z,32.16
2023-04-06T12:26:59.621Z,32.45
2023-04-06T12:29:33.695Z,32.38
2023-04-06T12:32:02.300Z,32.12
2023-04-06T12:34:29.190Z,33.10
2023-04-06T12:36:56.746Z,33.06
2023-04-06T12:39:23.800Z,33.41
2023-04-06T12:41:50.359Z,33.07
2023-04-06T12:44:17.189Z,32.87
2023-04-06T12:46:44.246Z,33.07
2023-04-06T12:49:11.280Z,32.60
2023-04-06T12:51:38.145Z,32.28
2023-04-06T12:54:04.962Z,32.84
2023-04-06T12:56:32.108Z,32.22
2023-04-06T12:58:59.106Z,33.67
2023-04-06T13:01:26.755Z,33.15
2023-04-06T13:03:53.671Z,32.41
2023-04-06T13:06:20.628Z,31.84
2023-04-06T13:08:48.246Z,32.01
2023-04-06T13:11:15.491Z,32.77
2023-04-06T13:13:42.299Z,33.10
2023-04-06T13:16:09.688Z,34.76
2023-04-06T13:18:39.381Z,34.85
2023-04-06T13:21:07.369Z,35.44
2023-04-06T13:23:34.629Z,34.45
2023-04-06T13:26:04.012Z,35.71
2023-04-06T13:28:31.518Z,35.81
2023-04-06T13:31:00.481Z,35.12
2023-04-06T13:33:27.887Z,35.26
2023-04-06T13:35:54.658Z,35.60
2023-04-06T13:38:21.885Z,36.53
2023-04-06T13:40:48.544Z,36.44
2023-04-06T13:43:15.616Z,36.84
2023-04-06T13:45:42.283Z,36.49
2023-04-06T13:48:09.013Z,34.23
2023-04-06T13:50:36.013Z,34.25
2023-04-06T13:53:02.545Z,34.57
2023-04-06T13:55:29.199Z,35.07
2023-04-06T13:57:56.014Z,35.27
2023-04-06T14:00:22.749Z,35.53
2023-04-06T14:02:49.563Z,35.46
2023-04-06T14:05:16.302Z,36.61
2023-04-06T14:07:42.992Z,36.52
2023-04-06T14:10:14.706Z,35.22
2023-04-06T14:12:45.769Z,36.41
2023-04-06T14:15:13.274Z,37.70
2023-04-06T14:17:40.091Z,37.79
2023-04-06T14:20:07.769Z,37.33
2023-04-06T14:22:34.330Z,37.19
2023-04-06T14:25:01.452Z,38.28
2023-04-06T14:27:28.028Z,38.85
2023-04-06T14:29:55.142Z,39.48
2023-04-06T14:32:22.072Z,39.06
2023-04-06T14:34:48.753Z,39.44
2023-04-06T14:37:15.607Z,40.31
2023-04-06T14:39:42.277Z,41.01
2023-04-06T14:42:08.868Z,41.40
2023-04-06T14:44:37.585Z,41.21
2023-04-06T14:47:07.405Z,40.23
2023-04-06T14:49:34.009Z,40.77
2023-04-06T14:52:00.721Z,41.49
2023-04-06T14:54:27.425Z,41.22
2023-04-06T14:56:54.087Z,40.21
2023-04-06T14:59:20.654Z,41.11
2023-04-06T15:01:47.340Z,41.37
2023-04-06T15:04:15.192Z,41.56
2023-04-06T15:06:41.869Z,41.27
2023-04-06T15:09:08.545Z,41.44
2023-04-06T15:11:35.251Z,41.74
2023-04-06T15:14:02.902Z,41.98
2023-04-06T15:16:33.365Z,42.52
2023-04-06T15:19:01.288Z,42.37
2023-04-06T15:21:28.266Z,42.82
2023-04-06T15:23:55.566Z,42.89
2023-04-06T15:26:22.138Z,42.91
2023-04-06T15:28:48.803Z,42.70
2023-04-06T15:31:35.923Z,42.46
2023-04-06T15:34:03.222Z,44.04
2023-04-06T15:36:30.487Z,43.57
2023-04-06T15:38:58.561Z,43.89
2023-04-06T15:41:26.884Z,44.19
2023-04-06T15:43:54.403Z,43.97
2023-04-06T15:46:21.853Z,44.47
2023-04-06T15:48:48.849Z,44.79
2023-04-06T15:51:17.516Z,45.09
2023-04-06T15:53:44.840Z,46.47
2023-04-06T15:56:11.722Z,47.05
2023-04-06T15:58:38.356Z,46.39
2023-04-06T16:01:15.930Z,47.82
2023-04-06T16:03:42.854Z,46.89
2023-04-06T16:06:09.855Z,46.37
2023-04-06T16:08:39.028Z,47.23
2023-04-06T16:11:05.827Z,47.13
2023-04-06T16:13:32.925Z,46.27
2023-04-06T16:15:59.486Z,47.06
2023-04-06T16:18:26.231Z,48.05
2023-04-06T16:20:52.910Z,48.95
2023-04-06T16:23:19.506Z,49.68
2023-04-06T16:25:46.349Z,50.99
2023-04-06T16:28:13.347Z,51.93
2023-04-06T16:30:41.601Z,52.99
2023-04-06T16:33:10.450Z,54.04
2023-04-06T16:35:43.673Z,54.34
2023-04-06T16:38:10.470Z,55.55
2023-04-06T16:40:36.976Z,57.06
2023-04-06T16:43:04.980Z,57.92
2023-04-06T16:45:32.025Z,58.62
2023-04-06T16:47:58.824Z,59.83
2023-04-06T16:50:25.489Z,59.83
2023-04-06T16:52:52.163Z,60.61
2023-04-06T16:55:18.743Z,61.73
2023-04-06T16:57:45.532Z,63.11
2023-04-06T17:00:12.946Z,63.36
2023-04-06T17:02:39.831Z,63.45
2023-04-06T17:05:06.799Z,63.59
2023-04-06T17:07:35.434Z,64.19
2023-04-06T17:10:03.526Z,64.92
2023-04-06T17:12:30.484Z,65.41
2023-04-06T17:14:57.208Z,66.36
2023-04-06T17:17:23.954Z,67.31
2023-04-06T17:19:50.589Z,68.24
2023-04-06T17:22:20.641Z,68.62
2023-04-06T17:24:48.816Z,70.06
2023-04-06T17:27:16.217Z,72.00
2023-04-06T17:29:42.938Z,73.45
2023-04-06T17:32:11.460Z,73.63
2023-04-06T17:34:38.496Z,74.65
2023-04-06T17:37:05.640Z,76.43
2023-04-06T17:39:32.799Z,78.26
2023-04-06T17:42:00.062Z,80.50
2023-04-06T17:44:26.833Z,81.87
2023-04-06T17:46:53.427Z,83.00
2023-04-06T17:49:20.353Z,83.97
2023-04-06T17:51:46.942Z,85.42
2023-04-06T17:54:13.670Z,91.08
2023-04-06T17:56:41.467Z,91.83
2023-04-06T17:59:10.376Z,93.31
2023-04-06T18:01:40.420Z,96.32
2023-04-06T18:04:07.190Z,99.38
2023-04-06T18:06:33.830Z,100.00
2023-04-06T18:09:00.777Z,100.00
2023-04-06T18:11:30.618Z,100.00
2023-04-06T18:13:58.259Z,100.00
2023-04-06T18:16:25.291Z,100.00
2023-04-06T18:18:52.052Z,100.00
2023-04-06T18:21:18.867Z,100.00
2023-04-06T18:23:46.408Z,100.00
2023-04-06T18:26:18.762Z,100.00
2023-04-06T18:28:46.558Z,100.00
2023-04-06T18:31:13.536Z,100.00
2023-04-06T18:33:40.222Z,100.00
2023-04-06T18:36:06.991Z,100.00
2023-04-06T18:38:33.795Z,100.00
2023-04-06T18:41:00.406Z,100.00
2023-04-06T18:43:27.829Z,100.00
2023-04-06T18:45:54.362Z,100.00
2023-04-06T18:48:21.000Z,100.00
2023-04-06T18:51:01.596Z,100.00
2023-04-06T18:53:28.437Z,100.00
2023-04-06T18:55:58.836Z,100.00
2023-04-06T18:58:26.164Z,100.00
2023-04-06T19:00:53.881Z,100.00
2023-04-06T19:03:22.182Z,100.00
2023-04-06T19:05:49.175Z,100.00
2023-04-06T19:08:15.974Z,100.00
2023-04-06T19:10:42.515Z,100.00
2023-04-06T19:13:09.476Z,100.00
2023-04-06T19:15:36.174Z,100.00
2023-04-06T19:18:02.842Z,100.00
2023-04-06T19:20:29.400Z,100.00
2023-04-06T19:22:57.148Z,100.00
2023-04-06T19:25:23.948Z,100.00
2023-04-06T19:27:50.477Z,100.00
2023-04-06T19:30:17.038Z,100.00
2023-04-06T19:32:44.117Z,100.00
2023-04-06T19:35:10.739Z,100.00
2023-04-06T19:37:38.513Z,100.00
2023-04-06T19:40:10.453Z,100.00
2023-04-06T19:42:38.541Z,100.00
2023-04-06T19:45:06.149Z,100.00
2023-04-06T19:47:32.995Z,100.00
2023-04-06T19:49:59.522Z,100.00
2023-04-06T19:52:26.080Z,100.00
2023-04-06T19:54:52.567Z,100.00
2023-04-06T19:57:19.071Z,100.00
2023-04-06T19:59:45.603Z,100.00
2023-04-06T20:02:12.371Z,100.00
2023-04-06T20:04:39.366Z,100.00
2023-04-06T20:07:06.281Z,100.00
2023-04-06T20:09:32.966Z,100.00
2023-04-06T20:12:00.679Z,100.00
2023-04-06T20:14:27.288Z,100.00
2023-04-06T20:16:54.109Z,100.00
2023-04-06T20:19:20.917Z,100.00
2023-04-06T20:21:48.487Z,100.00
2023-04-06T20:24:15.691Z,100.00
2023-04-06T20:26:42.332Z,100.00
2023-04-06T20:29:08.843Z,100.00
2023-04-06T20:31:35.418Z,100.00
2023-04-06T20:34:02.041Z,100.00
2023-04-06T20:36:32.015Z,100.00
2023-04-06T20:38:58.631Z,100.00
2023-04-06T20:41:25.223Z,100.00
2023-04-06T20:43:52.037Z,100.00
2023-04-06T20:46:18.763Z,100.00
2023-04-06T20:48:45.317Z,100.00
2023-04-06T20:51:19.288Z,100.00
2023-04-06T20:53:46.931Z,100.00
2023-04-06T20:56:13.650Z,100.00
2023-04-06T20:58:40.406Z,100.00
2023-04-06T21:01:14.722Z,100.00
2023-04-06T21:03:42.410Z,100.00
2023-04-06T21:06:09.922Z,100.00
2023-04-06T21:08:37.265Z,100.00
2023-04-06T21:11:04.599Z,100.00
2023-04-06T21:13:31.304Z,100.00
2023-04-06T21:15:57.966Z,100.00
2023-04-06T21:18:24.860Z,100.00
2023-04-06T21:20:51.482Z,100.00
2023-04-06T21:23:18.153Z,100.00
2023-04-06T21:25:44.688Z,100.00
2023-04-06T21:28:11.266Z,100.00
2023-04-06T21:30:37.815Z,100.00
2023-04-06T21:33:04.986Z,100.00
2023-04-06T21:35:31.653Z,100.00
2023-04-06T21:37:58.423Z,100.00
2023-04-06T21:40:25.007Z,100.00
2023-04-06T21:42:51.591Z,100.00
2023-04-06T21:45:18.124Z,100.00
2023-04-06T21:47:44.787Z,100.00
2023-04-06T21:50:11.557Z,100.00
2023-04-06T21:52:38.328Z,100.00
2023-04-06T21:55:05.949Z,100.00
2023-04-06T21:57:32.568Z,100.00
2023-04-06T21:59:59.145Z,100.00
2023-04-06T22:02:25.918Z,100.00
2023-04-06T22:04:52.718Z,100.00
2023-04-06T22:07:19.406Z,100.00
2023-04-06T22:09:50.836Z,100.00
2023-04-06T22:12:18.619Z,100.00
2023-04-06T22:14:45.348Z,100.00
2023-04-06T22:17:11.912Z,100.00
2023-04-06T22:19:38.601Z,100.00
2023-04-06T22:22:05.602Z,100.00
2023-04-06T22:24:32.358Z,100.00
2023-04-06T22:26:59.127Z,100.00
2023-04-06T22:29:25.797Z,100.00
2023-04-06T22:31:52.408Z,100.00
2023-04-06T22:34:19.150Z,100.00
2023-04-06T22:36:45.937Z,100.00
2023-04-06T22:39:12.439Z,100.00
2023-04-06T22:41:38.985Z,100.00
2023-04-06T22:44:05.687Z,100.00
2023-04-06T22:46:32.500Z,100.00
2023-04-06T22:48:59.298Z,100.00
2023-04-06T22:51:27.942Z,100.00
2023-04-06T22:53:54.626Z,100.00
2023-04-06T22:56:21.838Z,100.00
2023-04-06T22:58:48.558Z,100.00
2023-04-06T23:01:15.504Z,100.00
2023-04-06T23:03:42.454Z,100.00
2023-04-06T23:06:09.090Z,100.00
2023-04-06T23:08:35.593Z,100.00
2023-04-06T23:11:02.163Z,100.00
2023-04-06T23:13:28.692Z,100.00
2023-04-06T23:15:55.460Z,100.00
2023-04-06T23:18:22.032Z,100.00
2023-04-06T23:20:48.638Z,100.00
2023-04-06T23:23:15.471Z,100.00
2023-04-06T23:25:42.290Z,100.00
2023-04-06T23:28:08.850Z,100.00
2023-04-06T23:30:35.419Z,100.00
2023-04-06T23:33:01.989Z,100.00
2023-04-06T23:35:28.567Z,100.00
2023-04-06T23:37:55.064Z,100.00
2023-04-06T23:40:21.705Z,100.00
2023-04-06T23:42:48.240Z,100.00
2023-04-06T23:45:14.809Z,100.00
2023-04-06T23:47:41.421Z,100.00
2023-04-06T23:50:08.449Z,100.00
2023-04-06T23:52:35.311Z,100.00
2023-04-06T23:55:01.911Z,100.00
2023-04-06T23:57:28.421Z,100.00
2023-04-06T23:59:54.981Z,100.00
